Time,TemperatureF,DewpointF,PressureIn,WindDirection,WindDirectionDegrees,WindSpeedMPH,WindSpeedGustMPH,Humidity,HourlyPrecipIn,Conditions,Clouds,dailyrainin,SoftwareType,DateUTC
2013-06-16 00:03:00,80.5,76.0,30.09,ENE,59,0.0,0.0,87,0.00,,,0.00,weatherlink.com 1.10,2013-06-16 04:03:00,
2013-06-16 00:17:00,80.1,76.0,30.09,ENE,59,0.0,0.0,87,0.00,,,0.00,weatherlink.com 1.10,2013-06-16 04:17:00,
2013-06-16 00:32:00,79.7,76.0,30.09,ENE,59,0.0,1.0,88,0.00,,,0.00,weatherlink.com 1.10,2013-06-16 04:32:00,
2013-06-16 00:47:00,79.5,76.0,30.09,ENE,59,0.0,0.0,89,0.00,,,0.00,weatherlink.com 1.10,2013-06-16 04:47:00,
2013-06-16 01:02:00,79.1,76.0,30.09,ENE,59,0.0,0.0,90,0.00,,,0.00,weatherlink.com 1.10,2013-06-16 05:02:00,
2013-06-16 01:17:00,78.8,76.0,30.08,ENE,59,0.0,1.0,90,0.00,,,0.00,weatherlink.com 1.10,2013-06-16 05:17:00,
2013-06-16 01:32:00,78.6,76.0,30.08,ENE,59,0.0,0.0,91,0.00,,,0.00,weatherlink.com 1.10,2013-06-16 05:32:00,
2013-06-16 01:47:00,78.5,76.0,30.09,ENE,59,0.0,0.0,92,0.00,,,0.00,weatherlink.com 1.10,2013-06-16 05:47:00,
2013-06-16 02:02:00,78.2,76.0,30.08,ENE,59,0.0,0.0,92,0.00,,,0.00,weatherlink.com 1.10,2013-06-16 06:02:00,
2013-06-16 02:17:00,77.8,76.0,30.08,ENE,59,0.0,0.0,93,0.00,,,0.00,weatherlink.com 1.10,2013-06-16 06:17:00,
2013-06-16 02:32:00,77.8,76.0,30.08,ENE,59,0.0,0.0,93,0.00,,,0.00,weatherlink.com 1.10,2013-06-16 06:32:00,
2013-06-16 02:47:00,77.5,75.0,30.08,ENE,59,0.0,0.0,93,0.00,,,0.00,weatherlink.com 1.10,2013-06-16 06:47:00,
2013-06-16 03:02:00,77.3,76.0,30.07,ENE,59,0.0,0.0,94,0.00,,,0.00,weatherlink.com 1.10,2013-06-16 07:02:00,
2013-06-16 03:17:00,77.3,76.0,30.07,ENE,59,0.0,0.0,94,0.00,,,0.00,weatherlink.com 1.10,2013-06-16 07:17:00,
2013-06-16 03:32:00,77.1,76.0,30.06,ENE,59,0.0,0.0,95,0.00,,,0.00,weatherlink.com 1.10,2013-06-16 07:32:00,
2013-06-16 03:48:00,77.2,76.0,30.06,ENE,59,0.0,1.0,95,0.00,,,0.00,weatherlink.com 1.10,2013-06-16 07:48:00,
2013-06-16 04:02:00,77.1,76.0,30.06,ENE,59,0.0,2.0,95,0.00,,,0.00,weatherlink.com 1.10,2013-06-16 08:02:00,
2013-06-16 04:17:00,77.2,76.0,30.06,ENE,59,0.0,1.0,95,0.00,,,0.00,weatherlink.com 1.10,2013-06-16 08:17:00,
2013-06-16 04:32:00,77.2,76.0,30.06,ENE,59,0.0,0.0,95,0.00,,,0.00,weatherlink.com 1.10,2013-06-16 08:32:00,
2013-06-16 04:48:00,77.0,76.0,30.06,ENE,59,0.0,0.0,95,0.00,,,0.00,weatherlink.com 1.10,2013-06-16 08:48:00,
2013-06-16 05:03:00,77.2,76.0,30.07,ENE,59,0.0,0.0,95,0.00,,,0.00,weatherlink.com 1.10,2013-06-16 09:03:00,
2013-06-16 05:18:00,76.6,75.0,30.07,ENE,59,0.0,0.0,95,0.00,,,0.00,weatherlink.com 1.10,2013-06-16 09:18:00,
2013-06-16 05:33:00,76.7,76.0,30.06,ENE,59,0.0,0.0,96,0.00,,,0.00,weatherlink.com 1.10,2013-06-16 09:33:00,
2013-06-16 05:48:00,76.5,75.0,30.06,ENE,59,0.0,0.0,96,0.00,,,0.00,weatherlink.com 1.10,2013-06-16 09:48:00,
2013-06-16 06:03:00,76.1,75.0,30.07,ENE,59,0.0,0.0,96,0.00,,,0.00,weatherlink.com 1.10,2013-06-16 10:03:00,
2013-06-16 06:18:00,75.9,75.0,30.07,ENE,59,0.0,2.0,96,0.00,,,0.00,weatherlink.com 1.10,2013-06-16 10:18:00,
2013-06-16 06:33:00,76.1,75.0,30.07,ENE,59,0.0,1.0,96,0.00,,,0.00,weatherlink.com 1.10,2013-06-16 10:33:00,
2013-06-16 06:48:00,76.4,75.0,30.08,ENE,59,0.0,0.0,96,0.00,,,0.00,weatherlink.com 1.10,2013-06-16 10:48:00,
2013-06-16 07:03:00,76.4,75.0,30.08,ENE,59,0.0,0.0,96,0.00,,,0.00,weatherlink.com 1.10,2013-06-16 11:03:00,
2013-06-16 07:18:00,77.0,76.0,30.08,ENE,59,0.0,0.0,95,0.00,,,0.00,weatherlink.com 1.10,2013-06-16 11:18:00,
2013-06-16 07:33:00,77.9,76.0,30.09,ENE,59,0.0,0.0,94,0.00,,,0.00,weatherlink.com 1.10,2013-06-16 11:33:00,
2013-06-16 07:48:00,79.4,77.0,30.09,ENE,59,0.0,0.0,92,0.00,,,0.00,weatherlink.com 1.10,2013-06-16 11:48:00,
2013-06-16 08:03:00,81.1,77.0,30.09,ENE,59,0.0,0.0,88,0.00,,,0.00,weatherlink.com 1.10,2013-06-16 12:03:00,
2013-06-16 08:18:00,81.7,78.0,30.09,ENE,59,0.0,0.0,88,0.00,,,0.00,weatherlink.com 1.10,2013-06-16 12:18:00,
2013-06-16 08:33:00,83.2,78.0,30.10,ENE,75,5.0,9.0,83,0.00,,,0.00,weatherlink.com 1.10,2013-06-16 12:33:00,
2013-06-16 08:48:00,83.1,78.0,30.10,ENE,78,3.0,6.0,83,0.00,,,0.00,weatherlink.com 1.10,2013-06-16 12:48:00,
2013-06-16 09:03:00,84.0,77.0,30.11,NE,50,6.0,10.0,80,0.00,,,0.00,weatherlink.com 1.10,2013-06-16 13:03:00,
2013-06-16 09:18:00,84.5,77.0,30.11,ENE,58,3.0,10.0,79,0.00,,,0.00,weatherlink.com 1.10,2013-06-16 13:18:00,
2013-06-16 09:33:00,84.8,77.0,30.11,NE,42,3.0,10.0,78,0.00,,,0.00,weatherlink.com 1.10,2013-06-16 13:33:00,
2013-06-16 09:48:00,85.8,76.0,30.11,NE,55,5.0,10.0,73,0.00,,,0.00,weatherlink.com 1.10,2013-06-16 13:48:00,
2013-06-16 10:03:00,86.1,77.0,30.11,NE,52,5.0,7.0,75,0.00,,,0.00,weatherlink.com 1.10,2013-06-16 14:03:00,
2013-06-16 10:18:00,86.8,77.0,30.11,NE,49,2.0,8.0,73,0.00,,,0.00,weatherlink.com 1.10,2013-06-16 14:18:00,
2013-06-16 10:33:00,87.0,77.0,30.10,ENE,57,4.0,8.0,71,0.00,,,0.00,weatherlink.com 1.10,2013-06-16 14:33:00,
2013-06-16 10:48:00,87.8,77.0,30.10,East,80,2.0,7.0,70,0.00,,,0.00,weatherlink.com 1.10,2013-06-16 14:48:00,
2013-06-16 11:03:00,88.4,76.0,30.10,NE,36,2.0,8.0,66,0.00,,,0.00,weatherlink.com 1.10,2013-06-16 15:03:00,
2013-06-16 11:18:00,88.5,76.0,30.11,NE,47,5.0,9.0,67,0.00,,,0.00,weatherlink.com 1.10,2013-06-16 15:18:00,
2013-06-16 11:33:00,88.6,77.0,30.11,ESE,118,0.0,9.0,69,0.00,,,0.00,weatherlink.com 1.10,2013-06-16 15:33:00,
2013-06-16 11:48:00,89.0,76.0,30.11,NNE,28,6.0,12.0,65,0.00,,,0.00,weatherlink.com 1.10,2013-06-16 15:48:00,
2013-06-16 12:03:00,89.0,77.0,30.11,ENE,78,2.0,10.0,67,0.00,,,0.00,weatherlink.com 1.10,2013-06-16 16:03:00,
2013-06-16 12:18:00,89.7,77.0,30.10,NE,34,2.0,10.0,66,0.00,,,0.00,weatherlink.com 1.10,2013-06-16 16:18:00,
2013-06-16 12:33:00,90.0,76.0,30.10,NE,45,5.0,11.0,64,0.00,,,0.00,weatherlink.com 1.10,2013-06-16 16:33:00,
2013-06-16 12:48:00,90.6,77.0,30.10,East,95,8.0,11.0,64,0.00,,,0.00,weatherlink.com 1.10,2013-06-16 16:48:00,
2013-06-16 13:03:00,90.4,77.0,30.10,ENE,74,5.0,10.0,64,0.00,,,0.00,weatherlink.com 1.10,2013-06-16 17:03:00,
2013-06-16 13:18:00,90.3,77.0,30.10,ENE,69,3.0,10.0,65,0.00,,,0.00,weatherlink.com 1.10,2013-06-16 17:18:00,
2013-06-16 13:33:00,90.4,76.0,30.10,ENE,73,7.0,10.0,63,0.00,,,0.00,weatherlink.com 1.10,2013-06-16 17:33:00,
2013-06-16 13:48:00,91.0,77.0,30.10,East,96,6.0,11.0,64,0.00,,,0.00,weatherlink.com 1.10,2013-06-16 17:48:00,
2013-06-16 14:03:00,91.1,75.0,30.09,East,101,7.0,12.0,60,0.00,,,0.00,weatherlink.com 1.10,2013-06-16 18:03:00,
2013-06-16 14:18:00,91.0,74.0,30.09,ENE,60,9.0,9.0,58,0.00,,,0.00,weatherlink.com 1.10,2013-06-16 18:18:00,
2013-06-16 14:33:00,91.9,75.0,30.09,NE,56,8.0,9.0,58,0.00,,,0.00,weatherlink.com 1.10,2013-06-16 18:33:00,
2013-06-16 14:48:00,92.3,75.0,30.09,ENE,60,8.0,10.0,57,0.00,,,0.00,weatherlink.com 1.10,2013-06-16 18:48:00,
2013-06-16 15:03:00,92.4,75.0,30.08,ENE,63,4.0,9.0,57,0.00,,,0.00,weatherlink.com 1.10,2013-06-16 19:03:00,
2013-06-16 15:18:00,92.8,74.0,30.08,ENE,69,0.0,6.0,54,0.00,,,0.00,weatherlink.com 1.10,2013-06-16 19:18:00,
2013-06-16 15:33:00,92.4,74.0,30.08,ENE,77,7.0,10.0,56,0.00,,,0.00,weatherlink.com 1.10,2013-06-16 19:33:00,
2013-06-16 15:49:00,92.4,74.0,30.07,SE,131,1.0,10.0,56,0.00,,,0.00,weatherlink.com 1.10,2013-06-16 19:49:00,
2013-06-16 16:04:00,92.2,76.0,30.06,ENE,70,1.0,10.0,59,0.00,,,0.00,weatherlink.com 1.10,2013-06-16 20:04:00,
2013-06-16 16:19:00,91.8,76.0,30.06,ENE,77,5.0,13.0,61,0.00,,,0.00,weatherlink.com 1.10,2013-06-16 20:19:00,
2013-06-16 16:34:00,91.6,76.0,30.06,ENE,67,0.0,10.0,60,0.00,,,0.00,weatherlink.com 1.10,2013-06-16 20:34:00,
2013-06-16 16:49:00,91.6,75.0,30.05,East,95,6.0,12.0,59,0.00,,,0.00,weatherlink.com 1.10,2013-06-16 20:49:00,
2013-06-16 17:04:00,91.5,76.0,30.06,ENE,59,3.0,11.0,61,0.00,,,0.00,weatherlink.com 1.10,2013-06-16 21:04:00,
2013-06-16 17:19:00,91.2,76.0,30.06,East,85,3.0,10.0,62,0.00,,,0.00,weatherlink.com 1.10,2013-06-16 21:19:00,
2013-06-16 17:34:00,90.1,77.0,30.06,East,80,3.0,11.0,65,0.00,,,0.00,weatherlink.com 1.10,2013-06-16 21:34:00,
2013-06-16 17:49:00,90.8,77.0,30.05,NE,53,3.0,8.0,64,0.00,,,0.00,weatherlink.com 1.10,2013-06-16 21:49:00,
2013-06-16 18:04:00,89.3,77.0,30.06,East,88,0.0,14.0,67,0.00,,,0.00,weatherlink.com 1.10,2013-06-16 22:04:00,
2013-06-16 18:19:00,89.5,77.0,30.06,ENE,63,3.0,8.0,67,0.00,,,0.00,weatherlink.com 1.10,2013-06-16 22:19:00,
2013-06-16 18:34:00,89.2,77.0,30.06,SSE,147,4.0,10.0,68,0.00,,,0.00,weatherlink.com 1.10,2013-06-16 22:34:00,
2013-06-16 18:49:00,87.9,77.0,30.05,East,82,5.0,10.0,71,0.00,,,0.00,weatherlink.com 1.10,2013-06-16 22:49:00,
2013-06-16 19:04:00,87.0,77.0,30.06,ENE,74,5.0,11.0,72,0.00,,,0.00,weatherlink.com 1.10,2013-06-16 23:04:00,
2013-06-16 19:19:00,86.5,77.0,30.07,ENE,71,7.0,8.0,73,0.00,,,0.00,weatherlink.com 1.10,2013-06-16 23:19:00,
2013-06-16 19:34:00,86.2,77.0,30.07,East,95,6.0,8.0,75,0.00,,,0.00,weatherlink.com 1.10,2013-06-16 23:34:00,
2013-06-16 19:49:00,85.3,77.0,30.08,ESE,119,5.0,10.0,76,0.00,,,0.00,weatherlink.com 1.10,2013-06-16 23:49:00,
2013-06-16 20:04:00,84.5,77.0,30.08,East,90,3.0,7.0,77,0.00,,,0.00,weatherlink.com 1.10,2013-06-17 00:04:00,
2013-06-16 20:19:00,84.0,77.0,30.08,ENE,67,4.0,9.0,78,0.00,,,0.00,weatherlink.com 1.10,2013-06-17 00:19:00,
2013-06-16 20:34:00,83.6,77.0,30.07,NE,51,3.0,9.0,79,0.00,,,0.00,weatherlink.com 1.10,2013-06-17 00:34:00,
2013-06-16 20:49:00,83.2,76.0,30.07,ENE,75,0.0,8.0,80,0.00,,,0.00,weatherlink.com 1.10,2013-06-17 00:49:00,
2013-06-16 21:04:00,83.0,77.0,30.08,East,82,2.0,11.0,81,0.00,,,0.00,weatherlink.com 1.10,2013-06-17 01:04:00,
2013-06-16 21:19:00,82.8,76.0,30.08,SE,125,3.0,9.0,81,0.00,,,0.00,weatherlink.com 1.10,2013-06-17 01:19:00,
2013-06-16 21:34:00,82.6,76.0,30.09,East,98,5.0,8.0,81,0.00,,,0.00,weatherlink.com 1.10,2013-06-17 01:34:00,
2013-06-16 21:49:00,82.6,77.0,30.10,East,79,5.0,7.0,82,0.00,,,0.00,weatherlink.com 1.10,2013-06-17 01:49:00,
2013-06-16 22:04:00,82.5,77.0,30.11,ESE,117,4.0,6.0,82,0.00,,,0.00,weatherlink.com 1.10,2013-06-17 02:04:00,
2013-06-16 22:19:00,82.4,76.0,30.11,ESE,110,1.0,5.0,82,0.00,,,0.00,weatherlink.com 1.10,2013-06-17 02:19:00,
2013-06-16 22:34:00,82.3,77.0,30.11,ENE,67,0.0,6.0,83,0.00,,,0.00,weatherlink.com 1.10,2013-06-17 02:34:00,
2013-06-16 22:49:00,82.3,77.0,30.12,ESE,104,5.0,6.0,83,0.00,,,0.00,weatherlink.com 1.10,2013-06-17 02:49:00,
2013-06-16 23:04:00,82.2,77.0,30.13,ENE,61,7.0,7.0,83,0.00,,,0.00,weatherlink.com 1.10,2013-06-17 03:04:00,
2013-06-16 23:19:00,82.0,76.0,30.12,East,90,1.0,6.0,83,0.00,,,0.00,weatherlink.com 1.10,2013-06-17 03:19:00,
2013-06-16 23:34:00,82.0,76.0,30.12,East,92,6.0,7.0,83,0.00,,,0.00,weatherlink.com 1.10,2013-06-17 03:34:00,
2013-06-16 23:49:00,82.0,76.0,30.11,ESE,107,0.0,8.0,83,0.00,,,0.00,weatherlink.com 1.10,2013-06-17 03:49:00,